Valle Di Nervion — IBPC — position and weather

sailwx.info

Track history (hours):
 
Tides and Currents Weather Stations Pressure Air Temp Water Temp Dewpoint Dewpoint Depression Visibility Wind Speed Wind Dir Waves Ship Positions

Valle Di Nervion

Last reported at 2014-Sep-08 14:33 UTC. Time now 2014-Oct-01 18:30 UTC.
Position N 37°26' E 023°38'.
Warning: this ship's position is 23 days out of date.

Length 176 m; draft 9.5 m.

Type: Ship (hazmat cat D). MMSI: 247109500.

Date/timePositionNaut miles runAvg speedWind from/ knotsBaromVisibWave heightAir tempDewpointWater temp
2014-Sep-08 14:33N 37°26' E 023°38'1312.7
2014-Sep-08 13:33N 37°38' E 023°42'1312.6
2014-Sep-08 12:34N 37°50' E 023°37'8 7.7
2014-Sep-08 11:33N 37°57' E 023°33'4 1.9
2014-Sep-08 09:18N 38°01' E 023°31'0 0.2
2014-Sep-08 08:18N 38°01' E 023°31'0 0.0
2014-Sep-06 18:31N 38°02' E 023°31'0 0.2
2014-Sep-06 17:31N 38°01' E 023°31'0 0.2
2014-Sep-06 16:31N 38°02' E 023°31'0 0.0
2014-Sep-06 15:25N 38°02' E 023°31'0 0.0
2014-Sep-06 14:16N 38°02' E 023°31'0 0.0
2014-Sep-06 13:33N 38°02' E 023°31'0 0.0
2014-Sep-06 12:33N 38°02' E 023°31'4 2.7
2014-Sep-06 11:07N 37°58' E 023°33'4 7.2
2014-Sep-06 10:33N 37°55' E 023°37'6 5.8
2014-Sep-06 09:33N 37°50' E 023°40'7 7.1
2014-Sep-06 08:33N 37°44' E 023°43'5 5.3
2014-Sep-06 07:33N 37°39' E 023°46'5 5.5
2014-Sep-06 06:33N 37°33' E 023°48'23 7.8
2014-Sep-06 03:33N 37°10' E 023°54'8 6.7
2014-Sep-06 02:23N 37°03' E 023°56'6 7.1
2014-Sep-06 01:33N 36°57' E 023°57'8 7.6
2014-Sep-06 00:33N 36°50' E 024°01'8 7.8
2014-Sep-05 23:33N 36°44' E 024°07'8 7.9
2014-Sep-05 22:33N 36°37' E 024°13'8 7.8
2014-Sep-05 21:33N 36°32' E 024°20'8 7.8
2014-Sep-05 20:33N 36°28' E 024°28'7 7.3
2014-Sep-05 19:33N 36°24' E 024°36'7 6.7
2014-Sep-05 18:33N 36°20' E 024°43'6 6.5
2014-Sep-05 17:33N 36°17' E 024°50'6 6.3
2014-Sep-05 16:33N 36°14' E 024°56'6 6.5
2014-Sep-05 15:33N 36°10' E 025°03'7 7.0
2014-Sep-05 14:33N 36°06' E 025°10'7 7.2
2014-Sep-05 13:33N 36°02' E 025°17'7 7.2
2014-Sep-05 12:33N 35°58' E 025°25'1212.0
2014-Sep-05 11:33N 35°50' E 025°36'1514.6
2014-Sep-05 10:33N 35°42' E 025°51'11 1.1
2014-Sep-05 00:24N 35°37' E 026°04'5 1.0
2014-Sep-04 19:33N 35°42' E 026°02'1 0.1
2014-Sep-03 23:30N 35°41' E 026°03'2 0.9
2014-Sep-03 21:17N 35°43' E 026°01'1 0.9
2014-Sep-03 20:29N 35°43' E 026°00'2 1.5
2014-Sep-03 19:26N 35°41' E 026°01'5 6.1
2014-Sep-03 18:33N 35°37' E 026°04'2 0.2
2014-Sep-03 08:30N 35°35' E 026°03'1 0.3
2014-Sep-03 06:27N 35°35' E 026°02'1 0.6
2014-Sep-03 05:12N 35°35' E 026°01'0 0.7
2014-Sep-03 04:30N 35°36' E 026°01'1 0.6
2014-Sep-03 03:30N 35°36' E 026°00'0 0.2
2014-Sep-03 01:33N 35°36' E 025°60'0 0.1
2014-Sep-03 00:24N 35°36' E 025°60'0 0.2
2014-Sep-02 23:18N 35°36' E 025°60'0 0.4
2014-Sep-02 22:33N 35°36' E 026°00'1 0.6
2014-Sep-02 21:18N 35°37' E 026°00'6 0.4
2014-Sep-02 05:26N 35°43' E 026°00'4 5.0
2014-Sep-02 04:33N 35°41' E 026°05'8 6.7
2014-Sep-02 03:21N 35°36' E 026°13'31010.4
2014-Aug-31 21:22N 34°22' E 032°21'1012.1
2014-Aug-31 20:33N 34°20' E 032°33'1212.4
2014-Aug-31 19:33N 34°17' E 032°48'1212.4
2014-Aug-31 18:33N 34°15' E 033°02'2512.6
2014-Aug-31 16:33N 34°09' E 033°32'1312.7
2014-Aug-31 15:33N 34°07' E 033°47'1312.8
2014-Aug-31 14:33N 34°04' E 034°02'1312.9
2014-Aug-31 13:33N 34°02' E 034°17'2613.0
2014-Aug-31 11:32N 33°57' E 034°49'  
Track history (hours):
 
Tides and Currents Weather Stations Pressure Air Temp Water Temp Dewpoint Dewpoint Depression Visibility Wind Speed Wind Dir Waves Ship Positions

Valle Di Nervion

Last reported at 2014-Sep-08 14:33 UTC. Time now 2014-Oct-01 18:30 UTC.
Position N 37°26' E 023°38'.
Warning: this ship's position is 23 days out of date.

Length 176 m; draft 9.5 m.

Type: Ship (hazmat cat D). MMSI: 247109500.

Date/timePositionNaut miles runAvg speedWind from/ knotsBaromVisibWave heightAir tempDewpointWater temp
2014-Sep-08 14:33N 37°26' E 023°38'1312.7
2014-Sep-08 13:33N 37°38' E 023°42'1312.6
2014-Sep-08 12:34N 37°50' E 023°37'8 7.7
2014-Sep-08 11:33N 37°57' E 023°33'4 1.9
2014-Sep-08 09:18N 38°01' E 023°31'0 0.2
2014-Sep-08 08:18N 38°01' E 023°31'0 0.0
2014-Sep-06 18:31N 38°02' E 023°31'0 0.2
2014-Sep-06 17:31N 38°01' E 023°31'0 0.2
2014-Sep-06 16:31N 38°02' E 023°31'0 0.0
2014-Sep-06 15:25N 38°02' E 023°31'0 0.0
2014-Sep-06 14:16N 38°02' E 023°31'0 0.0
2014-Sep-06 13:33N 38°02' E 023°31'0 0.0
2014-Sep-06 12:33N 38°02' E 023°31'4 2.7
2014-Sep-06 11:07N 37°58' E 023°33'4 7.2
2014-Sep-06 10:33N 37°55' E 023°37'6 5.8
2014-Sep-06 09:33N 37°50' E 023°40'7 7.1
2014-Sep-06 08:33N 37°44' E 023°43'5 5.3
2014-Sep-06 07:33N 37°39' E 023°46'5 5.5
2014-Sep-06 06:33N 37°33' E 023°48'23 7.8
2014-Sep-06 03:33N 37°10' E 023°54'8 6.7
2014-Sep-06 02:23N 37°03' E 023°56'6 7.1
2014-Sep-06 01:33N 36°57' E 023°57'8 7.6
2014-Sep-06 00:33N 36°50' E 024°01'8 7.8
2014-Sep-05 23:33N 36°44' E 024°07'8 7.9
2014-Sep-05 22:33N 36°37' E 024°13'8 7.8
2014-Sep-05 21:33N 36°32' E 024°20'8 7.8
2014-Sep-05 20:33N 36°28' E 024°28'7 7.3
2014-Sep-05 19:33N 36°24' E 024°36'7 6.7
2014-Sep-05 18:33N 36°20' E 024°43'6 6.5
2014-Sep-05 17:33N 36°17' E 024°50'6 6.3
2014-Sep-05 16:33N 36°14' E 024°56'6 6.5
2014-Sep-05 15:33N 36°10' E 025°03'7 7.0
2014-Sep-05 14:33N 36°06' E 025°10'7 7.2
2014-Sep-05 13:33N 36°02' E 025°17'7 7.2
2014-Sep-05 12:33N 35°58' E 025°25'1212.0
2014-Sep-05 11:33N 35°50' E 025°36'1514.6
2014-Sep-05 10:33N 35°42' E 025°51'11 1.1
2014-Sep-05 00:24N 35°37' E 026°04'5 1.0
2014-Sep-04 19:33N 35°42' E 026°02'1 0.1
2014-Sep-03 23:30N 35°41' E 026°03'2 0.9
2014-Sep-03 21:17N 35°43' E 026°01'1 0.9
2014-Sep-03 20:29N 35°43' E 026°00'2 1.5
2014-Sep-03 19:26N 35°41' E 026°01'5 6.1
2014-Sep-03 18:33N 35°37' E 026°04'2 0.2
2014-Sep-03 08:30N 35°35' E 026°03'1 0.3
2014-Sep-03 06:27N 35°35' E 026°02'1 0.6
2014-Sep-03 05:12N 35°35' E 026°01'0 0.7
2014-Sep-03 04:30N 35°36' E 026°01'1 0.6
2014-Sep-03 03:30N 35°36' E 026°00'0 0.2
2014-Sep-03 01:33N 35°36' E 025°60'0 0.1
2014-Sep-03 00:24N 35°36' E 025°60'0 0.2
2014-Sep-02 23:18N 35°36' E 025°60'0 0.4
2014-Sep-02 22:33N 35°36' E 026°00'1 0.6
2014-Sep-02 21:18N 35°37' E 026°00'6 0.4
2014-Sep-02 05:26N 35°43' E 026°00'4 5.0
2014-Sep-02 04:33N 35°41' E 026°05'8 6.7
2014-Sep-02 03:21N 35°36' E 026°13'31010.4
2014-Aug-31 21:22N 34°22' E 032°21'1012.1
2014-Aug-31 20:33N 34°20' E 032°33'1212.4
2014-Aug-31 19:33N 34°17' E 032°48'1212.4
2014-Aug-31 18:33N 34°15' E 033°02'2512.6
2014-Aug-31 16:33N 34°09' E 033°32'1312.7
2014-Aug-31 15:33N 34°07' E 033°47'1312.8
2014-Aug-31 14:33N 34°04' E 034°02'1312.9
2014-Aug-31 13:33N 34°02' E 034°17'2613.0
2014-Aug-31 11:32N 33°57' E 034°49'  

Dump ship's entire track history